Time;durP1;ratioP1;P1;durP2;ratioP2;P2;SDS_P1;SDS_P2;PMS_P1;PMS_P2;Temp;Humidity;BMP_temperature;BMP_pressure;BME280_temperature;BME280_humidity;BME280_pressure;Samples;Min_cycle;Max_cycle;Signal;HPM_P1;HPM_P2
2023/09/17 00:00:09;;;;;;;28.20;24.85;;;19.60;99.90;;;;;;5073623;28;20209;-73
2023/09/17 00:02:35;;;;;;;30.42;24.98;;;19.60;99.90;;;;;;5073721;28;20171;-73
2023/09/17 00:05:01;;;;;;;26.73;23.65;;;19.60;99.90;;;;;;5073055;28;20253;-73
2023/09/17 00:07:27;;;;;;;27.60;24.17;;;19.60;99.90;;;;;;5073329;28;20200;-73
2023/09/17 00:09:52;;;;;;;32.25;25.63;;;19.50;99.90;;;;;;5073341;28;20199;-73
2023/09/17 00:12:19;;;;;;;28.75;25.35;;;19.60;99.90;;;;;;5073407;28;20161;-73
2023/09/17 00:14:45;;;;;;;30.60;27.10;;;19.60;99.90;;;;;;5073240;28;20188;-73
2023/09/17 00:17:11;;;;;;;33.45;27.27;;;19.60;99.90;;;;;;5073319;28;20180;-74
2023/09/17 00:19:37;;;;;;;31.20;26.98;;;19.50;99.90;;;;;;5072682;28;20216;-75
2023/09/17 00:22:04;;;;;;;22.00;19.75;;;19.50;99.90;;;;;;5073476;28;20164;-74
2023/09/17 00:24:29;;;;;;;28.42;24.35;;;19.40;99.90;;;;;;5073333;28;20188;-74
2023/09/17 00:26:55;;;;;;;28.00;24.75;;;19.40;99.90;;;;;;5073178;28;20192;-74
2023/09/17 00:29:23;;;;;;;27.27;23.73;;;19.40;99.90;;;;;;5073328;28;20177;-74
2023/09/17 00:31:49;;;;;;;27.63;24.30;;;19.40;99.90;;;;;;5073441;28;20179;-74
2023/09/17 00:34:14;;;;;;;24.90;22.05;;;19.40;99.90;;;;;;5072925;28;20176;-74
2023/09/17 00:36:40;;;;;;;23.98;21.35;;;19.40;99.90;;;;;;5071863;28;20236;-75
2023/09/17 00:39:06;;;;;;;28.52;24.27;;;19.40;99.90;;;;;;5073012;28;20498;-73
2023/09/17 00:41:32;;;;;;;28.38;23.90;;;19.40;99.90;;;;;;5073359;28;20180;-73
2023/09/17 00:43:58;;;;;;;30.23;24.35;;;19.50;99.90;;;;;;5073112;28;20169;-74
2023/09/17 00:46:24;;;;;;;23.10;20.10;;;19.50;99.90;;;;;;5073156;28;20631;-74
2023/09/17 00:48:50;;;;;;;18.38;16.48;;;19.40;99.90;;;;;;5072512;28;20179;-74
2023/09/17 00:51:16;;;;;;;18.83;16.88;;;19.40;99.90;;;;;;5073117;28;20182;-74
2023/09/17 00:53:42;;;;;;;17.92;16.10;;;19.40;99.90;;;;;;5073069;28;20631;-74
2023/09/17 00:56:08;;;;;;;15.07;13.68;;;19.30;99.90;;;;;;5072885;28;20227;-74
2023/09/17 00:58:34;;;;;;;17.80;14.65;;;19.30;99.90;;;;;;5071704;28;20168;-74
2023/09/17 01:01:01;;;;;;;13.43;12.02;;;19.30;99.90;;;;;;5072999;28;20202;-75
2023/09/17 01:03:27;;;;;;;13.27;11.52;;;19.20;99.90;;;;;;5072471;28;20168;-74
2023/09/17 01:05:54;;;;;;;12.60;11.43;;;19.10;99.90;;;;;;5076467;28;20697;-74
2023/09/17 01:08:22;;;;;;;12.45;11.25;;;19.10;99.90;;;;;;5076961;28;20310;-74
2023/09/17 01:10:49;;;;;;;14.40;11.80;;;19.10;99.90;;;;;;5076665;28;20176;-74
2023/09/17 01:13:15;;;;;;;13.95;12.60;;;19.10;99.90;;;;;;5076752;28;20161;-74
2023/09/17 01:15:42;;;;;;;12.32;11.02;;;19.10;99.90;;;;;;5076568;28;20275;-74
2023/09/17 01:18:09;;;;;;;12.63;11.18;;;19.10;99.90;;;;;;5076451;28;20180;-73
2023/09/17 01:20:46;;;;;;;15.02;12.07;;;19.10;99.90;;;;;;5076648;28;20292;-74
2023/09/17 01:23:46;;;;;;;13.45;12.05;;;19.20;99.90;;;;;;5076539;28;20247;-72
2023/09/17 01:26:15;;;;;;;13.27;11.13;;;19.10;99.90;;;;;;5074777;28;20208;-73
2023/09/17 01:28:41;;;;;;;11.65;10.50;;;19.10;99.90;;;;;;5076442;28;20173;-73
2023/09/17 01:31:09;;;;;;;11.20;10.18;;;19.10;99.90;;;;;;5076399;28;20662;-74
2023/09/17 01:33:35;;;;;;;11.07;10.07;;;19.10;99.90;;;;;;5075989;28;20264;-73
2023/09/17 01:36:27;;;;;;;11.10;10.07;;;19.20;99.90;;;;;;5076113;28;20192;-73
2023/09/17 01:38:59;;;;;;;11.82;10.57;;;19.20;99.90;;;;;;5076104;28;20211;-75
2023/09/17 01:41:27;;;;;;;11.32;10.13;;;19.30;99.90;;;;;;5076400;28;20306;-73
2023/09/17 01:43:54;;;;;;;10.80;9.70;;;19.30;99.90;;;;;;5076178;28;20231;-73
2023/09/17 01:46:20;;;;;;;12.60;9.93;;;19.20;99.90;;;;;;5075708;28;20176;-72
2023/09/17 01:48:46;;;;;;;12.75;11.50;;;19.20;99.90;;;;;;5076041;28;20172;-74
2023/09/17 01:51:13;;;;;;;13.18;11.75;;;19.10;99.90;;;;;;5075946;28;20251;-72
2023/09/17 01:53:39;;;;;;;12.75;11.52;;;19.10;99.90;;;;;;5076193;28;20173;-73
2023/09/17 01:56:05;;;;;;;11.82;10.68;;;19.10;99.90;;;;;;5075831;28;20709;-72
2023/09/17 01:58:31;;;;;;;13.02;11.20;;;19.10;99.90;;;;;;5075753;28;20172;-73
2023/09/17 02:00:56;;;;;;;12.32;11.15;;;19.10;99.90;;;;;;5075500;28;20169;-73
2023/09/17 02:03:22;;;;;;;12.82;11.50;;;19.10;99.90;;;;;;5075757;28;20161;-73
2023/09/17 02:05:48;;;;;;;12.52;11.25;;;19.20;99.90;;;;;;5075690;28;20628;-72
2023/09/17 02:08:14;;;;;;;12.98;11.55;;;19.20;99.90;;;;;;5075694;28;20556;-72
2023/09/17 02:10:40;;;;;;;14.00;12.70;;;19.20;99.90;;;;;;5075705;28;20185;-72
2023/09/17 02:13:06;;;;;;;14.52;13.07;;;19.20;99.90;;;;;;5075626;28;20176;-72
2023/09/17 02:15:32;;;;;;;16.35;13.70;;;19.20;99.90;;;;;;5074726;28;20663;-73
2023/09/17 02:17:58;;;;;;;15.50;13.90;;;19.30;99.90;;;;;;5075205;28;20168;-73
2023/09/17 02:20:24;;;;;;;16.55;14.85;;;19.40;99.90;;;;;;5075050;28;20228;-73
2023/09/17 02:22:50;;;;;;;17.17;14.02;;;19.40;99.90;;;;;;5075585;28;20205;-72
2023/09/17 02:25:16;;;;;;;15.52;13.80;;;19.40;99.90;;;;;;5075316;28;20824;-73
2023/09/17 02:27:42;;;;;;;17.00;14.73;;;19.30;99.90;;;;;;5075427;28;20169;-72
2023/09/17 02:30:08;;;;;;;17.38;15.50;;;19.40;99.90;;;;;;5075052;28;20180;-72
2023/09/17 02:32:34;;;;;;;16.98;15.18;;;19.30;99.90;;;;;;5075418;28;20175;-73
2023/09/17 02:35:00;;;;;;;17.35;15.48;;;19.20;99.90;;;;;;5074934;28;20172;-73
2023/09/17 02:37:26;;;;;;;18.15;16.27;;;19.20;99.90;;;;;;5073868;28;20177;-74
2023/09/17 02:39:51;;;;;;;19.40;17.23;;;19.30;99.90;;;;;;5075047;28;20228;-74
2023/09/17 02:42:17;;;;;;;20.02;17.17;;;19.40;99.90;;;;;;5075310;28;20256;-74
2023/09/17 02:44:43;;;;;;;21.15;18.58;;;19.50;99.90;;;;;;5074757;28;20563;-73
2023/09/17 02:47:09;;;;;;;19.55;17.55;;;19.40;99.90;;;;;;5074929;28;20567;-73
2023/09/17 02:49:35;;;;;;;22.23;18.02;;;19.40;99.90;;;;;;5074650;28;20194;-73
2023/09/17 02:52:01;;;;;;;19.70;17.63;;;19.50;99.90;;;;;;5075112;28;20165;-73
2023/09/17 02:54:27;;;;;;;20.92;18.25;;;19.60;99.90;;;;;;5074790;28;20173;-73
2023/09/17 02:56:53;;;;;;;24.00;19.73;;;19.70;99.90;;;;;;5074566;28;20235;-73
2023/09/17 02:59:19;;;;;;;23.00;19.75;;;19.60;99.90;;;;;;5074386;28;20207;-72
2023/09/17 03:01:45;;;;;;;21.17;18.70;;;19.50;99.90;;;;;;5074778;28;20231;-72
2023/09/17 03:04:10;;;;;;;31.00;19.17;;;19.50;99.90;;;;;;5073199;28;20190;-73
2023/09/17 03:06:37;;;;;;;22.50;20.10;;;19.30;99.90;;;;;;5074570;28;20631;-73
2023/09/17 03:09:09;;;;;;;24.88;21.20;;;19.30;99.90;;;;;;5074747;28;20179;-73
2023/09/17 03:11:34;;;;;;;25.17;21.05;;;19.40;99.90;;;;;;5074353;28;20183;-72
2023/09/17 03:14:00;;;;;;;36.42;31.30;;;19.40;99.90;;;;;;5073992;28;20168;-73
2023/09/17 03:16:26;;;;;;;37.28;32.55;;;19.40;99.90;;;;;;5074313;28;20203;-72
2023/09/17 03:18:51;;;;;;;37.38;32.60;;;19.30;99.90;;;;;;5073848;28;20168;-72
2023/09/17 03:21:18;;;;;;;44.20;35.00;;;19.40;99.90;;;;;;5074283;28;20185;-72
2023/09/17 03:23:44;;;;;;;43.00;36.35;;;19.50;99.90;;;;;;5072786;28;20180;-73
2023/09/17 03:26:10;;;;;;;42.90;35.38;;;19.50;99.90;;;;;;5073169;28;20241;-73
2023/09/17 03:28:36;;;;;;;40.45;34.33;;;19.40;99.90;;;;;;5072638;28;20215;-72
2023/09/17 03:31:03;;;;;;;42.63;34.78;;;19.30;99.90;;;;;;5073856;28;20169;-72
2023/09/17 03:33:29;;;;;;;29.90;24.48;;;19.30;99.90;;;;;;5073926;28;20172;-72
2023/09/17 03:35:55;;;;;;;40.25;33.28;;;19.30;99.90;;;;;;5073917;28;20204;-72
2023/09/17 03:38:20;;;;;;;36.35;32.40;;;19.30;99.90;;;;;;5074000;28;20493;-72
2023/09/17 03:40:46;;;;;;;37.83;32.53;;;19.30;99.90;;;;;;5072569;28;20230;-72
2023/09/17 03:43:12;;;;;;;40.75;33.90;;;19.30;99.90;;;;;;5073267;28;20173;-72
2023/09/17 03:45:38;;;;;;;40.78;33.70;;;19.40;99.90;;;;;;5073690;28;20227;-72
2023/09/17 03:48:04;;;;;;;41.20;34.10;;;19.50;99.90;;;;;;5073166;28;20636;-72
2023/09/17 03:50:30;;;;;;;41.10;31.63;;;19.60;99.90;;;;;;5073386;28;20588;-72
2023/09/17 03:52:58;;;;;;;36.33;30.20;;;19.70;99.90;;;;;;5073589;28;20164;-72
2023/09/17 03:55:24;;;;;;;39.85;32.72;;;19.60;99.90;;;;;;5073299;28;20203;-72
2023/09/17 03:57:50;;;;;;;48.80;38.90;;;19.70;99.90;;;;;;5072990;28;20181;-72
2023/09/17 04:00:17;;;;;;;47.15;39.90;;;19.70;99.90;;;;;;5073505;28;20252;-72
2023/09/17 04:02:43;;;;;;;48.05;40.63;;;19.70;99.90;;;;;;5073303;28;20168;-72
2023/09/17 04:05:12;;;;;;;50.20;41.85;;;19.70;99.90;;;;;;5073053;28;20173;-72
2023/09/17 04:07:39;;;;;;;43.25;38.03;;;19.50;99.90;;;;;;5073153;28;20723;-71
2023/09/17 04:10:06;;;;;;;45.58;39.17;;;19.50;99.90;;;;;;5073194;28;20329;-73
2023/09/17 04:12:36;;;;;;;47.33;40.75;;;19.60;99.90;;;;;;5072806;28;20178;-72
2023/09/17 04:15:03;;;;;;;49.33;41.78;;;19.70;99.90;;;;;;5073193;28;20244;-72
2023/09/17 04:17:28;;;;;;;48.20;40.80;;;19.70;99.90;;;;;;5073184;28;20199;-72
2023/09/17 04:19:55;;;;;;;48.05;40.90;;;19.60;99.90;;;;;;5072872;28;20208;-72
2023/09/17 04:22:20;;;;;;;45.97;40.40;;;19.60;99.90;;;;;;5073161;28;20211;-72
2023/09/17 04:24:48;;;;;;;46.78;40.53;;;19.50;99.90;;;;;;5073053;28;20628;-72
2023/09/17 04:27:13;;;;;;;46.08;41.05;;;19.40;99.90;;;;;;5072672;28;20191;-72
2023/09/17 04:29:39;;;;;;;52.65;40.75;;;19.40;99.90;;;;;;5072823;28;20532;-72
2023/09/17 04:32:05;;;;;;;52.45;43.00;;;19.30;99.90;;;;;;5073325;28;20168;-72
2023/09/17 04:34:30;;;;;;;53.42;43.80;;;19.40;99.90;;;;;;5073129;28;20214;-73
2023/09/17 04:36:58;;;;;;;53.55;44.70;;;19.40;99.90;;;;;;5071602;28;20684;-73
2023/09/17 04:39:27;;;;;;;51.55;44.40;;;19.40;99.90;;;;;;5072581;28;20226;-73
2023/09/17 04:41:54;;;;;;;50.40;43.55;;;19.40;99.90;;;;;;5072566;28;20611;-72
2023/09/17 04:44:19;;;;;;;55.30;46.75;;;19.50;99.90;;;;;;5073131;28;20233;-72
2023/09/17 04:46:45;;;;;;;53.83;45.13;;;19.60;99.90;;;;;;5072976;28;20528;-72
2023/09/17 04:49:11;;;;;;;55.55;45.80;;;19.80;99.90;;;;;;5072620;28;20169;-72
2023/09/17 04:51:37;;;;;;;52.85;44.35;;;19.80;99.90;;;;;;5072816;28;20168;-72
2023/09/17 04:54:04;;;;;;;54.08;44.17;;;19.80;99.90;;;;;;5072814;28;20644;-72
2023/09/17 04:56:32;;;;;;;55.38;44.83;;;19.50;99.90;;;;;;5072269;28;20211;-73
2023/09/17 04:58:59;;;;;;;54.22;44.90;;;19.40;99.90;;;;;;5072683;28;20169;-72
2023/09/17 05:01:25;;;;;;;55.17;45.88;;;19.40;99.90;;;;;;5072642;28;20197;-73
2023/09/17 05:03:51;;;;;;;58.25;45.60;;;19.50;99.90;;;;;;5072562;28;20168;-73
2023/09/17 05:06:17;;;;;;;55.65;46.53;;;19.50;99.90;;;;;;5072759;28;20618;-72
2023/09/17 05:08:43;;;;;;;57.08;45.88;;;19.60;99.90;;;;;;5072703;28;20169;-72
2023/09/17 05:11:08;;;;;;;58.78;48.00;;;19.60;99.90;;;;;;5072293;28;20168;-72
2023/09/17 05:13:34;;;;;;;58.33;47.10;;;19.70;99.90;;;;;;5071091;28;20299;-72
2023/09/17 05:16:00;;;;;;;61.38;47.60;;;19.80;99.90;;;;;;5072372;28;20204;-72
2023/09/17 05:18:26;;;;;;;58.70;46.20;;;19.80;99.90;;;;;;5072420;28;20294;-72
2023/09/17 05:20:53;;;;;;;58.92;46.53;;;19.80;99.90;;;;;;5072123;28;20601;-74
2023/09/17 05:23:20;;;;;;;57.97;47.25;;;19.80;99.90;;;;;;5072493;28;20181;-73
2023/09/17 05:25:46;;;;;;;56.55;46.30;;;19.80;99.90;;;;;;5072418;28;20188;-73
2023/09/17 05:28:11;;;;;;;56.28;46.03;;;19.70;99.90;;;;;;5072447;28;20218;-72
2023/09/17 05:30:37;;;;;;;56.58;45.67;;;19.70;99.90;;;;;;5072427;28;20194;-72
2023/09/17 05:33:04;;;;;;;58.78;46.90;;;19.90;99.90;;;;;;5072406;28;20215;-72
2023/09/17 05:35:30;;;;;;;61.47;47.63;;;19.90;99.90;;;;;;5072389;28;20258;-72
2023/09/17 05:37:57;;;;;;;57.33;47.30;;;19.80;99.90;;;;;;5071808;28;20176;-72
2023/09/17 05:40:22;;;;;;;62.65;48.15;;;19.80;99.90;;;;;;5071963;28;20164;-72
2023/09/17 05:42:48;;;;;;;63.13;49.15;;;19.70;99.90;;;;;;5071340;28;20587;-72
2023/09/17 05:45:14;;;;;;;58.92;48.47;;;19.70;99.90;;;;;;5072248;28;20169;-73
2023/09/17 05:47:42;;;;;;;68.78;51.00;;;19.80;99.90;;;;;;5071076;28;20176;-73
2023/09/17 05:50:09;;;;;;;63.67;50.22;;;20.00;99.90;;;;;;5071747;28;20165;-72
2023/09/17 05:52:35;;;;;;;45.25;37.85;;;19.90;99.90;;;;;;5074808;28;20171;-72
2023/09/17 05:55:04;;;;;;;51.78;40.88;;;19.90;99.90;;;;;;5075526;28;20173;-72
2023/09/17 05:57:30;;;;;;;61.38;46.40;;;20.00;99.90;;;;;;5075565;28;20173;-72
2023/09/17 05:59:56;;;;;;;59.88;47.10;;;20.10;99.90;;;;;;5075268;28;20173;-72
2023/09/17 06:02:21;;;;;;;46.00;36.28;;;20.00;99.90;;;;;;5075624;28;20172;-73
2023/09/17 06:04:52;;;;;;;45.83;35.92;;;19.90;99.90;;;;;;5075693;28;20173;-71
2023/09/17 06:07:21;;;;;;;43.88;37.05;;;19.90;99.90;;;;;;5075164;28;20169;-73
2023/09/17 06:09:46;;;;;;;30.52;24.67;;;20.00;99.90;;;;;;5074188;28;20185;-73
2023/09/17 06:12:12;;;;;;;25.80;22.90;;;19.90;99.90;;;;;;5075105;28;20172;-73
2023/09/17 06:14:38;;;;;;;25.90;22.20;;;19.90;99.90;;;;;;5074342;28;20528;-73
2023/09/17 06:17:04;;;;;;;27.15;22.08;;;20.00;99.90;;;;;;5075194;28;20264;-73
2023/09/17 06:19:31;;;;;;;21.40;17.30;;;20.10;99.90;;;;;;5074746;28;20220;-73
2023/09/17 06:21:56;;;;;;;17.23;15.43;;;20.10;99.90;;;;;;5075076;28;20505;-73
2023/09/17 06:24:22;;;;;;;17.42;15.70;;;20.00;99.90;;;;;;5073825;28;20180;-72
2023/09/17 06:26:48;;;;;;;16.85;15.10;;;20.00;99.90;;;;;;5075235;28;20199;-73
2023/09/17 06:29:13;;;;;;;18.48;15.07;;;19.90;99.90;;;;;;5075073;28;20558;-72
2023/09/17 06:31:40;;;;;;;18.88;16.08;;;19.90;99.90;;;;;;5075139;28;20195;-72
2023/09/17 06:34:05;;;;;;;19.55;16.77;;;19.90;99.90;;;;;;5075278;28;20176;-73
2023/09/17 06:36:32;;;;;;;19.38;17.00;;;20.00;99.90;;;;;;5073857;28;20583;-73
2023/09/17 06:38:57;;;;;;;18.85;16.52;;;20.10;99.90;;;;;;5075111;28;20207;-72
2023/09/17 06:41:23;;;;;;;17.83;15.93;;;20.20;99.90;;;;;;5074846;28;20678;-72
2023/09/17 06:43:49;;;;;;;18.90;16.80;;;20.10;99.90;;;;;;5074874;28;20528;-74
2023/09/17 06:46:14;;;;;;;20.45;16.65;;;20.10;99.90;;;;;;5074790;28;20181;-73
2023/09/17 06:48:40;;;;;;;19.23;15.95;;;20.20;99.90;;;;;;5074687;28;20538;-73
2023/09/17 06:51:06;;;;;;;19.33;16.25;;;20.30;99.90;;;;;;5074418;28;20180;-73
2023/09/17 06:53:31;;;;;;;18.55;16.63;;;20.30;99.90;;;;;;5074573;28;20177;-74
2023/09/17 06:55:58;;;;;;;16.50;14.88;;;20.30;99.90;;;;;;5074205;28;20208;-74
2023/09/17 06:58:24;;;;;;;19.52;15.70;;;20.30;99.90;;;;;;5074761;28;20226;-74
2023/09/17 07:00:49;;;;;;;17.65;15.27;;;20.40;99.90;;;;;;5074268;28;20168;-73
2023/09/17 07:03:15;;;;;;;17.98;16.08;;;20.40;99.90;;;;;;5073954;28;20186;-73
2023/09/17 07:05:41;;;;;;;18.83;16.27;;;20.30;99.90;;;;;;5073783;28;20624;-73
2023/09/17 07:08:06;;;;;;;19.27;16.40;;;20.40;99.90;;;;;;5074513;28;20216;-73
2023/09/17 07:10:33;;;;;;;20.33;17.55;;;20.40;99.90;;;;;;5072570;28;20191;-73
2023/09/17 07:12:58;;;;;;;20.83;17.75;;;20.30;99.90;;;;;;5074416;28;20168;-73
2023/09/17 07:15:25;;;;;;;21.20;17.67;;;20.20;99.90;;;;;;5073847;28;20218;-73
2023/09/17 07:17:54;;;;;;;19.15;17.20;;;20.20;99.90;;;;;;5073928;28;20624;-74
2023/09/17 07:20:19;;;;;;;19.02;15.77;;;20.10;99.90;;;;;;5072084;28;20220;-73
2023/09/17 07:22:46;;;;;;;19.70;17.42;;;20.00;99.90;;;;;;5073683;28;20183;-73
2023/09/17 07:25:12;;;;;;;20.52;17.48;;;19.90;99.90;;;;;;5073873;28;20220;-73
2023/09/17 07:27:38;;;;;;;19.55;17.27;;;20.00;99.90;;;;;;5073757;28;20223;-73
2023/09/17 07:30:05;;;;;;;17.48;15.60;;;20.00;99.90;;;;;;5074119;28;20173;-74
2023/09/17 07:32:31;;;;;;;17.92;15.50;;;19.90;99.90;;;;;;5073514;28;20655;-74
2023/09/17 07:34:57;;;;;;;19.08;15.52;;;19.90;99.90;;;;;;5071547;28;20249;-74
2023/09/17 07:37:23;;;;;;;18.65;16.13;;;19.90;99.90;;;;;;5073954;28;20242;-73
2023/09/17 07:39:55;;;;;;;15.93;14.25;;;19.90;99.90;;;;;;5073621;28;20238;-74
2023/09/17 07:42:21;;;;;;;15.60;14.00;;;20.10;99.90;;;;;;5073374;28;20187;-73
2023/09/17 07:44:47;;;;;;;18.02;14.07;;;20.10;99.90;;;;;;5073429;28;20584;-74
2023/09/17 07:47:12;;;;;;;17.08;15.23;;;20.30;99.90;;;;;;5073549;28;20196;-73
2023/09/17 07:49:38;;;;;;;16.15;14.43;;;20.50;99.90;;;;;;5071990;28;20172;-73
2023/09/17 07:52:04;;;;;;;17.33;14.48;;;20.50;99.90;;;;;;5073480;28;20226;-74
2023/09/17 07:54:36;;;;;;;15.85;14.35;;;20.50;99.90;;;;;;5073652;28;20662;-74
2023/09/17 07:57:04;;;;;;;15.90;14.30;;;20.60;99.90;;;;;;5071642;28;20208;-74
2023/09/17 07:59:30;;;;;;;15.13;13.52;;;20.70;99.90;;;;;;5073125;28;20200;-74
2023/09/17 08:01:56;;;;;;;15.57;13.98;;;20.80;99.90;;;;;;5072782;28;20548;-73
2023/09/17 08:04:22;;;;;;;15.05;13.57;;;21.00;99.90;;;;;;5073133;28;20796;-74
2023/09/17 08:06:49;;;;;;;15.82;13.82;;;21.10;99.90;;;;;;5072944;28;20177;-73
2023/09/17 08:09:15;;;;;;;15.02;13.38;;;21.00;99.90;;;;;;5073145;28;20165;-73
2023/09/17 08:11:42;;;;;;;15.30;13.77;;;21.10;99.90;;;;;;5071545;28;20200;-73
2023/09/17 08:14:08;;;;;;;14.15;12.55;;;20.90;99.90;;;;;;5072549;28;20176;-74
2023/09/17 08:16:35;;;;;;;13.90;12.60;;;20.90;99.90;;;;;;5071330;28;20261;-74
2023/09/17 08:19:01;;;;;;;14.52;13.02;;;20.80;99.90;;;;;;5072693;28;20184;-74
2023/09/17 08:21:27;;;;;;;14.30;12.88;;;20.70;99.90;;;;;;5071593;28;20584;-74
2023/09/17 08:23:52;;;;;;;14.30;12.35;;;20.60;99.90;;;;;;5073133;28;20175;-74
2023/09/17 08:26:19;;;;;;;13.48;12.20;;;20.60;99.90;;;;;;5071956;28;20537;-74
2023/09/17 08:28:45;;;;;;;14.35;12.95;;;20.80;99.90;;;;;;5073062;28;20165;-74
2023/09/17 08:31:11;;;;;;;13.93;12.35;;;21.00;99.90;;;;;;5072492;28;20208;-74
2023/09/17 08:33:37;;;;;;;13.88;12.55;;;20.80;99.90;;;;;;5071406;28;20242;-74
2023/09/17 08:36:03;;;;;;;14.07;12.57;;;20.70;99.90;;;;;;5072600;28;20238;-74
2023/09/17 08:38:32;;;;;;;13.40;12.00;;;20.80;99.90;;;;;;5073228;28;20520;-74
2023/09/17 08:40:59;;;;;;;13.77;12.38;;;20.80;99.90;;;;;;5072449;28;20183;-74
2023/09/17 08:43:25;;;;;;;12.48;11.27;;;20.90;99.90;;;;;;5072237;28;20180;-75
2023/09/17 08:45:51;;;;;;;14.20;12.57;;;20.90;99.90;;;;;;5072501;28;20624;-75
2023/09/17 08:48:17;;;;;;;12.73;11.50;;;21.00;99.90;;;;;;5072289;28;20172;-74
2023/09/17 08:50:49;;;;;;;13.52;11.93;;;21.30;99.90;;;;;;5072404;28;20179;-74
2023/09/17 08:53:19;;;;;;;12.55;11.23;;;21.50;99.90;;;;;;5072452;28;20193;-75
2023/09/17 08:55:50;;;;;;;11.85;10.75;;;21.60;99.90;;;;;;5072758;28;20204;-73
2023/09/17 08:58:21;;;;;;;11.98;10.88;;;21.90;99.90;;;;;;5072357;28;20199;-73
2023/09/17 09:00:50;;;;;;;11.60;10.50;;;22.00;99.90;;;;;;5072296;28;20632;-74
2023/09/17 09:03:20;;;;;;;11.75;10.65;;;22.00;99.90;;;;;;5072640;28;20188;-74
2023/09/17 09:05:47;;;;;;;11.43;10.38;;;22.30;99.90;;;;;;5072471;28;20164;-74
2023/09/17 09:08:13;;;;;;;11.68;10.55;;;22.50;99.50;;;;;;5072434;28;20576;-72
2023/09/17 09:10:40;;;;;;;10.82;9.70;;;22.70;90.00;;;;;;5072346;28;20176;-73
2023/09/17 09:13:05;;;;;;;11.10;10.00;;;23.00;88.30;;;;;;5072398;28;20180;-71
2023/09/17 09:15:32;;;;;;;11.02;10.02;;;23.00;81.30;;;;;;5071873;28;20196;-73
2023/09/17 09:17:57;;;;;;;10.77;9.77;;;23.00;75.90;;;;;;5072030;28;20662;-72
2023/09/17 09:20:23;;;;;;;11.57;10.35;;;23.10;76.20;;;;;;5072182;28;20307;-73
2023/09/17 09:22:49;;;;;;;10.85;9.85;;;23.00;73.90;;;;;;5072401;28;20234;-73
2023/09/17 09:25:15;;;;;;;11.23;10.13;;;23.00;73.20;;;;;;5072697;28;20306;-73
2023/09/17 09:27:42;;;;;;;11.40;10.10;;;23.00;77.90;;;;;;5076216;28;20200;-73
2023/09/17 09:30:10;;;;;;;10.95;9.95;;;23.30;71.40;;;;;;5076090;28;20180;-72
2023/09/17 09:32:38;;;;;;;11.32;10.23;;;23.40;72.90;;;;;;5075783;28;20172;-73
2023/09/17 09:35:05;;;;;;;11.93;10.57;;;23.60;59.80;;;;;;5074979;28;20655;-73
2023/09/17 09:37:31;;;;;;;11.90;9.93;;;23.80;49.10;;;;;;5075321;28;20184;-73
2023/09/17 09:39:58;;;;;;;13.10;9.95;;;24.00;41.80;;;;;;5075753;28;20496;-73
2023/09/17 09:42:25;;;;;;;10.82;9.73;;;24.00;38.30;;;;;;5075950;28;20194;-73
2023/09/17 09:44:52;;;;;;;10.73;9.57;;;24.10;38.10;;;;;;5075163;28;20370;-73
2023/09/17 09:47:21;;;;;;;10.32;9.23;;;24.10;34.10;;;;;;5075117;28;20222;-73
2023/09/17 09:49:47;;;;;;;10.25;9.27;;;23.50;48.80;;;;;;5075461;28;20168;-73
2023/09/17 09:52:17;;;;;;;10.68;9.77;;;23.40;55.70;;;;;;5075466;28;20651;-73
2023/09/17 09:54:45;;;;;;;14.65;9.95;;;23.40;66.30;;;;;;5075600;28;20168;-73
2023/09/17 09:57:18;;;;;;;12.38;10.70;;;23.30;63.70;;;;;;5075423;28;20307;-73
2023/09/17 09:59:46;;;;;;;11.93;10.73;;;23.30;54.60;;;;;;5075404;28;20179;-74
2023/09/17 10:02:15;;;;;;;12.40;10.25;;;23.50;56.70;;;;;;5074402;28;20184;-74
2023/09/17 10:04:42;;;;;;;13.48;9.52;;;23.70;49.60;;;;;;5074811;28;20260;-72
2023/09/17 10:07:08;;;;;;;12.65;11.35;;;24.20;45.00;;;;;;5075153;28;20219;-75
2023/09/17 10:09:34;;;;;;;13.25;10.65;;;24.60;20.00;;;;;;5075508;28;20184;-75
2023/09/17 10:12:00;;;;;;;13.27;10.27;;;25.20;13.60;;;;;;5074377;28;20161;-75
2023/09/17 10:14:26;;;;;;;11.20;10.02;;;25.20;1.00;;;;;;5074950;28;20175;-75
2023/09/17 10:16:54;;;;;;;11.85;10.77;;;25.40;1.10;;;;;;5075098;28;20558;-76
2023/09/17 10:19:22;;;;;;;11.30;10.10;;;25.80;1.00;;;;;;5074953;28;20201;-76
2023/09/17 10:21:48;;;;;;;12.10;10.88;;;26.10;1.00;;;;;;5074202;28;20188;-76
2023/09/17 10:24:16;;;;;;;11.93;10.75;;;26.40;1.00;;;;;;5075260;28;20161;-74
2023/09/17 10:26:43;;;;;;;13.65;10.68;;;26.70;1.00;;;;;;5074472;28;20525;-74
2023/09/17 10:29:10;;;;;;;13.82;10.40;;;27.20;1.00;;;;;;5073856;28;20165;-75
2023/09/17 10:31:40;;;;;;;11.93;10.55;;;27.30;1.00;;;;;;5074937;28;20233;-74
2023/09/17 10:34:08;;;;;;;11.57;9.50;;;27.00;1.00;;;;;;5074991;28;20179;-75
2023/09/17 10:36:36;;;;;;;9.88;9.07;;;27.40;1.00;;;;;;5073554;28;20204;-74
2023/09/17 10:39:03;;;;;;;9.57;8.63;;;28.00;1.00;;;;;;5074763;28;20179;-74
2023/09/17 10:41:32;;;;;;;9.32;8.43;;;28.60;1.00;;;;;;5074976;28;20174;-74
2023/09/17 10:43:59;;;;;;;8.85;7.72;;;28.90;1.00;;;;;;5073878;28;20165;-74
2023/09/17 10:46:28;;;;;;;8.32;7.55;;;28.80;1.00;;;;;;5074459;28;20192;-75
2023/09/17 10:48:56;;;;;;;8.00;7.32;;;28.10;1.00;;;;;;5072694;28;20730;-74
2023/09/17 10:51:22;;;;;;;8.40;7.70;;;27.70;1.00;;;;;;5074678;28;20195;-73
2023/09/17 10:53:47;;;;;;;9.88;8.40;;;28.20;1.00;;;;;;5074606;28;20620;-75
2023/09/17 10:56:14;;;;;;;9.23;7.90;;;28.50;1.00;;;;;;5074053;28;20277;-75
2023/09/17 10:58:45;;;;;;;9.32;8.57;;;28.50;1.00;;;;;;5073982;28;20259;-76
2023/09/17 11:01:15;;;;;;;9.55;8.57;;;29.10;1.00;;;;;;5073625;28;20171;-76
2023/09/17 11:03:55;;;;;;;8.57;7.90;;;29.50;1.00;;;;;;5073988;28;20204;-76
2023/09/17 11:06:26;;;;;;;8.55;7.80;;;30.30;99.90;;;;;;5073035;28;20219;-73
2023/09/17 11:08:54;;;;;;;8.95;8.27;;;30.10;99.90;;;;;;5073395;28;20233;-74
2023/09/17 11:11:25;;;;;;;8.70;7.90;;;30.10;99.90;;;;;;5073926;28;20180;-73
2023/09/17 11:13:53;;;;;;;9.20;8.50;;;30.40;99.90;;;;;;5073964;28;20173;-73
2023/09/17 11:16:19;;;;;;;9.85;9.05;;;30.30;99.90;;;;;;5073791;28;20299;-75
2023/09/17 11:19:10;;;;;;;9.15;8.30;;;29.90;1.00;;;;;;5074196;28;20172;-74
2023/09/17 11:21:37;;;;;;;8.85;8.07;;;30.00;99.90;;;;;;5073639;28;20180;-74
2023/09/17 11:24:06;;;;;;;10.32;8.05;;;29.90;1.00;;;;;;5073485;28;20179;-75
2023/09/17 11:26:33;;;;;;;8.63;7.88;;;29.40;1.00;;;;;;5073472;28;20211;-75
2023/09/17 11:29:02;;;;;;;8.80;7.88;;;29.70;1.00;;;;;;5071991;28;20599;-75
2023/09/17 11:31:28;;;;;;;9.35;8.45;;;29.50;1.00;;;;;;5073614;28;20172;-75
2023/09/17 11:33:55;;;;;;;10.05;9.23;;;29.00;1.00;;;;;;5073653;28;20165;-75
2023/09/17 11:36:21;;;;;;;8.93;8.05;;;28.30;1.00;;;;;;5073433;28;20211;-74
2023/09/17 11:38:47;;;;;;;9.07;8.27;;;27.90;1.00;;;;;;5072586;28;20188;-75
2023/09/17 11:41:23;;;;;;;8.77;7.97;;;27.80;1.00;;;;;;5073315;28;20260;-75
2023/09/17 11:43:51;;;;;;;8.70;7.95;;;27.50;1.00;;;;;;5073535;28;20160;-75
2023/09/17 11:46:17;;;;;;;9.35;8.40;;;27.00;1.00;;;;;;5073628;28;20195;-75
2023/09/17 11:48:44;;;;;;;13.75;8.90;;;27.10;1.00;;;;;;5072325;28;20525;-75
2023/09/17 11:51:27;;;;;;;9.15;8.45;;;26.70;1.00;;;;;;5072490;28;20199;-75
2023/09/17 11:53:53;;;;;;;8.90;8.10;;;27.10;1.00;;;;;;5072223;28;20169;-75
2023/09/17 11:56:19;;;;;;;8.52;7.57;;;27.20;1.00;;;;;;5072057;28;20203;-74
2023/09/17 11:58:46;;;;;;;8.85;7.97;;;27.60;1.00;;;;;;5072871;28;20172;-75
2023/09/17 12:01:13;;;;;;;10.90;7.97;;;27.80;1.00;;;;;;5072669;28;20183;-73
2023/09/17 12:03:39;;;;;;;8.20;7.35;;;27.80;1.00;;;;;;5073449;28;20679;-73
2023/09/17 12:06:04;;;;;;;7.93;7.38;;;28.00;1.00;;;;;;5073028;28;20211;-74
2023/09/17 12:08:31;;;;;;;7.82;7.13;;;27.80;1.00;;;;;;5073196;28;20540;-75
2023/09/17 12:11:02;;;;;;;8.43;7.60;;;27.80;1.00;;;;;;5072104;28;20177;-75
2023/09/17 12:13:30;;;;;;;7.53;6.93;;;28.20;1.00;;;;;;5072666;28;20161;-73
2023/09/17 12:15:57;;;;;;;8.35;7.10;;;28.20;1.00;;;;;;5071759;28;20208;-75
2023/09/17 12:18:24;;;;;;;7.50;6.88;;;27.90;1.00;;;;;;5072316;28;20235;-75
2023/09/17 12:20:56;;;;;;;8.88;7.97;;;28.10;1.00;;;;;;5071583;28;20231;-75
2023/09/17 12:23:41;;;;;;;8.57;7.47;;;28.10;1.00;;;;;;5072651;28;20177;-75
2023/09/17 12:26:06;;;;;;;7.97;7.22;;;27.80;1.00;;;;;;5072252;28;20714;-74
2023/09/17 12:28:32;;;;;;;8.52;7.70;;;27.80;1.00;;;;;;5072230;28;20216;-74
2023/09/17 12:30:58;;;;;;;8.57;7.45;;;27.90;1.00;;;;;;5072921;28;20271;-74